Pagrindinis puslapis
METAR-TAF:

METAR-TAF

Oro uostai :

Land's End, Anglija

platuma: 50-06-10N, ilguma: 005-40-14W, Aukštis: 122 m

Dabartinis oras

Ataskaita buvo paskelbta 35 minutes, ne 12:20 UTC
Vėjas 19 kt iš Pietvakarių
Temperatūra 10°C
Drėgmė 93%
Slėgis 1021 hPa
Matomumas 10 km arba daugiau
Mažai debesys ne aukštis 400 ft

METAR: EGHC 191220Z 23019KT 9999 FEW004 10/09 Q1021

Laikas: 12:55 (12:55 UTC)

Prognozė

Ataskaita buvo paskelbta 1 valandą ir 55 minutes, ne 11:00 UTC
Prognozė galioja nuo 19 metu 12 UTC su 19 metu 18 UTC
Vėjas 20 kt iš Pietvakarių
Matomumas 10 km arba daugiau
Su prošvaistėmis ne aukštis 2000 ft
Laikinai
nuo 19 metu 12 UTC su 19 metu 18 UTC
Vėjas 23 kt iš Vakarų/Pietvakarių su gūsio iki 33 kt
Tikimybė 30% :
Laikinai
nuo 19 metu 12 UTC su 19 metu 18 UTC
Matomumas: 9000 m
Su prošvaistėmis ne aukštis 1400 ft
lietus

TAF: EGHC 191100Z 1912/1918 23020KT 9999 BKN020 TEMPO 1912/1918 25023G33KT PROB30 TEMPO 1912/1918 9000 -RA BKN014

Orai ataskaitas ir orų prognozės (METAR, TAF).

turimą stotys yra geltonos ir raudonos taškus žemėlapyje.

Perkelti pele per norėdami pamatyti stoties vardą.

Tada spustelėkite, norėdami matyti oro stebėjimo ir prognozės.

Norėdami pakeisti žemėlapį: spustelėkite ant žalios mygtukų su juodo kryžiaus žemyn,; žalią mygtuką su brūkšneliu, jei norite nutolinti; arba žalių rodyklių gretimoms žemėlapius.


METAR-TAF: